createdAt,value
2018-06-25T00:00:09.972Z,48.10
2018-06-25T00:01:09.961Z,48.10
2018-06-25T00:02:09.974Z,47.99
2018-06-25T00:03:09.938Z,47.30
2018-06-25T00:04:09.926Z,47.89
2018-06-25T00:05:09.915Z,47.89
2018-06-25T00:06:09.920Z,48.10
2018-06-25T00:07:09.916Z,47.89
2018-06-25T00:08:09.883Z,48.10
2018-06-25T00:09:09.874Z,47.79
2018-06-25T00:10:09.861Z,48.10
2018-06-25T00:11:09.848Z,48.10
2018-06-25T00:12:09.861Z,47.69
2018-06-25T00:13:09.826Z,47.99
2018-06-25T00:14:09.815Z,47.89
2018-06-25T00:15:09.807Z,48.10
2018-06-25T00:16:09.792Z,48.39
2018-06-25T00:17:09.808Z,48.29
2018-06-25T00:18:09.771Z,48.29
2018-06-25T00:19:09.758Z,47.89
2018-06-25T00:20:09.749Z,48.19
2018-06-25T00:21:09.738Z,47.99
2018-06-25T00:22:09.753Z,47.79
2018-06-25T00:23:09.715Z,47.99
2018-06-25T00:24:09.704Z,47.99
2018-06-25T00:25:09.692Z,48.39
2018-06-25T00:26:09.682Z,48.29
2018-06-25T00:27:09.697Z,48.10
2018-06-25T00:28:09.659Z,48.60
2018-06-25T00:29:09.649Z,48.10
2018-06-25T00:30:09.637Z,48.39
2018-06-25T00:31:09.627Z,48.60
2018-06-25T00:32:09.641Z,47.89
2018-06-25T00:33:09.605Z,48.60
2018-06-25T00:34:09.593Z,48.49
2018-06-25T00:35:09.582Z,48.19
2018-06-25T00:36:09.572Z,48.39
2018-06-25T00:37:09.585Z,48.19
2018-06-25T00:38:09.550Z,48.60
2018-06-25T00:39:09.539Z,48.19
2018-06-25T00:40:09.526Z,48.19
2018-06-25T00:41:09.516Z,48.29
2018-06-25T00:42:09.557Z,48.19
2018-06-25T00:43:09.494Z,48.49
2018-06-25T00:44:09.482Z,48.39
2018-06-25T00:45:09.472Z,48.39
2018-06-25T00:46:09.464Z,48.49
2018-06-25T00:47:09.473Z,48.39
2018-06-25T00:48:09.488Z,48.29
2018-06-25T00:49:09.427Z,48.39
2018-06-25T00:50:09.416Z,48.19
2018-06-25T00:51:09.404Z,48.29
2018-06-25T00:52:09.418Z,48.19
2018-06-25T00:53:09.382Z,48.39
2018-06-25T00:54:09.372Z,48.29
2018-06-25T00:55:09.359Z,48.19
2018-06-25T00:56:09.349Z,48.19
2018-06-25T00:57:09.362Z,48.10
2018-06-25T00:58:09.326Z,48.39
2018-06-25T00:59:09.316Z,48.29
2018-06-25T01:00:09.306Z,48.10
2018-06-25T01:01:09.294Z,48.19
2018-06-25T01:02:09.306Z,48.29
2018-06-25T01:03:09.272Z,48.29
2018-06-25T01:04:09.261Z,48.29
2018-06-25T01:05:09.248Z,47.99
2018-06-25T01:06:09.240Z,48.19
2018-06-25T01:07:09.227Z,48.19
2018-06-25T01:08:09.240Z,48.19
2018-06-25T01:09:09.204Z,48.19
2018-06-25T01:10:09.194Z,48.19
2018-06-25T01:11:09.181Z,48.29
2018-06-25T01:12:09.173Z,47.99
2018-06-25T01:13:09.185Z,48.19
2018-06-25T01:14:09.149Z,48.29
2018-06-25T01:15:09.137Z,48.39
2018-06-25T01:16:09.127Z,48.29
2018-06-25T01:17:09.120Z,48.19
2018-06-25T01:18:09.128Z,47.99
2018-06-25T01:19:09.094Z,48.19
2018-06-25T01:20:09.081Z,48.29
2018-06-25T01:21:09.072Z,48.19
2018-06-25T01:22:09.060Z,48.29
2018-06-25T01:23:09.076Z,48.19
2018-06-25T01:24:09.038Z,48.39
2018-06-25T01:25:09.025Z,47.99
2018-06-25T01:26:09.015Z,48.19
2018-06-25T01:27:09.003Z,48.19
2018-06-25T01:28:09.017Z,48.19
2018-06-25T01:29:08.981Z,48.39
2018-06-25T01:30:08.973Z,48.10
2018-06-25T01:31:08.959Z,48.39
2018-06-25T01:32:08.947Z,47.99
2018-06-25T01:33:08.963Z,48.22
2018-06-25T01:34:08.926Z,48.22
2018-06-25T01:35:08.914Z,47.89
2018-06-25T01:36:08.904Z,48.29
2018-06-25T01:37:08.906Z,48.19
2018-06-25T01:38:08.908Z,48.19
2018-06-25T01:39:08.874Z,48.22
2018-06-25T01:40:08.863Z,48.39
2018-06-25T01:41:08.847Z,48.29
2018-06-25T01:42:08.838Z,48.29
2018-06-25T01:43:08.852Z,48.19
2018-06-25T01:44:08.818Z,48.19
2018-06-25T01:45:08.805Z,48.19
2018-06-25T01:46:08.793Z,48.19
2018-06-25T01:47:08.782Z,47.89
2018-06-25T01:48:08.801Z,48.39
2018-06-25T01:49:08.761Z,48.39
2018-06-25T01:50:08.749Z,48.39
2018-06-25T01:51:08.742Z,47.69
2018-06-25T01:52:08.726Z,48.10
2018-06-25T01:53:08.741Z,48.39
2018-06-25T01:54:08.705Z,48.29
2018-06-25T01:55:08.693Z,48.49
2018-06-25T01:56:08.683Z,48.19
2018-06-25T01:57:08.698Z,47.69
2018-06-25T01:58:08.685Z,48.19
2018-06-25T01:59:08.650Z,48.29
2018-06-25T02:00:08.638Z,48.39
2018-06-25T02:01:08.628Z,48.19
2018-06-25T02:02:08.617Z,48.49
2018-06-25T02:03:08.631Z,48.49
2018-06-25T02:04:08.593Z,48.11
2018-06-25T02:05:08.587Z,48.29
2018-06-25T02:06:08.572Z,47.79
2018-06-25T02:07:08.562Z,48.49
2018-06-25T02:08:08.552Z,48.10
2018-06-25T02:09:08.566Z,48.60
2018-06-25T02:10:08.527Z,47.79
2018-06-25T02:11:08.517Z,48.60
2018-06-25T02:12:08.506Z,48.49
2018-06-25T02:13:08.495Z,48.39
2018-06-25T02:14:08.507Z,48.29
2018-06-25T02:15:08.474Z,48.61
2018-06-25T02:16:08.462Z,47.89
2018-06-25T02:17:08.451Z,48.32
2018-06-25T02:18:08.441Z,48.29
2018-06-25T02:19:08.453Z,48.10
2018-06-25T02:20:08.416Z,48.42
2018-06-25T02:21:08.407Z,48.19
2018-06-25T02:22:08.395Z,48.90
2018-06-25T02:23:08.385Z,48.10
2018-06-25T02:24:08.398Z,48.10
2018-06-25T02:25:08.363Z,48.52
2018-06-25T02:26:08.352Z,48.39
2018-06-25T02:27:08.339Z,48.10
2018-06-25T02:28:08.328Z,48.19
2018-06-25T02:29:08.342Z,48.11
2018-06-25T02:30:08.309Z,48.52
2018-06-25T02:31:08.296Z,48.39
2018-06-25T02:32:08.286Z,48.42
2018-06-25T02:33:08.273Z,48.29
2018-06-25T02:34:08.285Z,48.39
2018-06-25T02:35:08.253Z,48.82
2018-06-25T02:36:08.240Z,48.39
2018-06-25T02:37:08.230Z,48.49
2018-06-25T02:38:08.217Z,48.90
2018-06-25T02:39:08.239Z,48.90
2018-06-25T02:40:08.196Z,48.02
2018-06-25T02:41:08.189Z,48.82
2018-06-25T02:42:08.174Z,48.52
2018-06-25T02:43:08.161Z,49.09
2018-06-25T02:44:08.178Z,48.29
2018-06-25T02:45:08.144Z,48.42
2018-06-25T02:46:08.131Z,48.39
2018-06-25T02:47:08.119Z,48.39
2018-06-25T02:48:08.106Z,48.79
2018-06-25T02:49:08.119Z,48.49
2018-06-25T02:50:08.085Z,48.61
2018-06-25T02:51:08.075Z,48.49
2018-06-25T02:52:08.063Z,48.90
2018-06-25T02:53:08.050Z,48.49
2018-06-25T02:54:08.065Z,48.52
2018-06-25T02:55:08.030Z,48.32
2018-06-25T02:56:08.017Z,49.09
2018-06-25T02:57:08.007Z,48.42
2018-06-25T02:58:07.996Z,48.79
2018-06-25T02:59:08.069Z,49.02
2018-06-25T03:00:07.973Z,48.52
2018-06-25T03:01:07.963Z,48.79
2018-06-25T03:02:07.954Z,49.11
2018-06-25T03:03:07.940Z,48.99
2018-06-25T03:04:07.952Z,49.11
2018-06-25T03:05:07.919Z,48.29
2018-06-25T03:06:07.906Z,48.52
2018-06-25T03:07:07.897Z,48.32
2018-06-25T03:08:07.889Z,48.29
2018-06-25T03:09:07.897Z,48.42
2018-06-25T03:10:07.861Z,48.52
2018-06-25T03:11:07.850Z,48.42
2018-06-25T03:12:07.841Z,49.22
2018-06-25T03:13:07.827Z,49.11
2018-06-25T03:14:07.843Z,48.61
2018-06-25T03:15:07.807Z,48.92
2018-06-25T03:16:07.794Z,48.61
2018-06-25T03:17:07.789Z,48.82
2018-06-25T03:18:07.773Z,48.60
2018-06-25T03:19:07.787Z,48.79
2018-06-25T03:20:07.749Z,48.39
2018-06-25T03:21:07.741Z,48.72
2018-06-25T03:22:07.728Z,48.69
2018-06-25T03:23:07.767Z,48.72
2018-06-25T03:24:07.730Z,48.42
2018-06-25T03:25:07.697Z,48.32
2018-06-25T03:26:07.684Z,48.32
2018-06-25T03:27:07.673Z,48.72
2018-06-25T03:28:07.661Z,48.92
2018-06-25T03:29:07.674Z,48.52
2018-06-25T03:30:07.641Z,48.79
2018-06-25T03:31:07.628Z,48.79
2018-06-25T03:32:07.617Z,48.82
2018-06-25T03:33:07.605Z,48.72
2018-06-25T03:34:07.621Z,48.92
2018-06-25T03:35:07.590Z,48.82
2018-06-25T03:36:07.573Z,48.82
2018-06-25T03:37:07.563Z,48.82
2018-06-25T03:38:07.550Z,48.79
2018-06-25T03:39:07.562Z,48.82
2018-06-25T03:40:07.528Z,49.09
2018-06-25T03:41:07.518Z,48.61
2018-06-25T03:42:07.508Z,49.02
2018-06-25T03:43:07.495Z,48.82
2018-06-25T03:44:07.487Z,48.61
2018-06-25T03:45:07.497Z,48.82
2018-06-25T03:46:07.464Z,48.92
2018-06-25T03:47:07.451Z,48.82
2018-06-25T03:48:07.442Z,48.82
2018-06-25T03:49:07.453Z,48.92
2018-06-25T03:50:07.417Z,48.79
2018-06-25T03:51:07.407Z,48.82
2018-06-25T03:52:07.398Z,48.92
2018-06-25T03:53:07.385Z,48.72
2018-06-25T03:54:07.376Z,48.92
2018-06-25T03:55:07.386Z,48.92
2018-06-25T03:56:07.351Z,48.90
2018-06-25T03:57:07.342Z,48.72
2018-06-25T03:58:07.328Z,48.82
2018-06-25T03:59:07.319Z,48.92
2018-06-25T04:00:07.330Z,48.72
2018-06-25T04:01:07.356Z,48.82
2018-06-25T04:02:07.287Z,48.82
2018-06-25T04:03:07.273Z,48.92
2018-06-25T04:04:07.264Z,48.61
2018-06-25T04:05:07.276Z,48.72
2018-06-25T04:06:07.240Z,48.82
2018-06-25T04:07:07.229Z,48.72
2018-06-25T04:08:07.220Z,48.92
2018-06-25T04:09:07.209Z,48.61
2018-06-25T04:10:07.220Z,48.72
2018-06-25T04:11:07.187Z,48.72
2018-06-25T04:12:07.178Z,48.61
2018-06-25T04:13:07.166Z,48.72
2018-06-25T04:14:07.153Z,48.72
2018-06-25T04:15:07.165Z,48.61
2018-06-25T04:16:07.129Z,48.72
2018-06-25T04:17:07.120Z,48.72
2018-06-25T04:18:07.107Z,48.52
2018-06-25T04:19:07.100Z,48.52
2018-06-25T04:20:07.112Z,48.72
2018-06-25T04:21:07.075Z,48.52
2018-06-25T04:22:07.064Z,48.52
2018-06-25T04:23:07.053Z,48.61
2018-06-25T04:24:07.045Z,48.72
2018-06-25T04:25:07.057Z,48.72
2018-06-25T04:26:07.024Z,48.61
2018-06-25T04:27:07.010Z,48.52
2018-06-25T04:28:06.998Z,48.52
2018-06-25T04:29:06.990Z,48.52
2018-06-25T04:30:06.999Z,48.72
2018-06-25T04:31:06.964Z,48.82
2018-06-25T04:32:06.953Z,48.52
2018-06-25T04:33:06.943Z,48.60
2018-06-25T04:34:06.937Z,48.52
2018-06-25T04:35:06.945Z,48.61
2018-06-25T04:36:06.908Z,48.52
2018-06-25T04:37:06.898Z,48.52
2018-06-25T04:38:06.889Z,48.61
2018-06-25T04:39:06.879Z,48.82
2018-06-25T04:40:06.891Z,48.61
2018-06-25T04:41:06.878Z,48.61
2018-06-25T04:42:06.854Z,48.52
2018-06-25T04:43:06.841Z,48.52
2018-06-25T04:44:06.821Z,48.72
2018-06-25T04:45:06.858Z,48.82
2018-06-25T04:46:06.799Z,48.52
2018-06-25T04:47:06.789Z,48.69
2018-06-25T04:48:06.778Z,48.82
2018-06-25T04:49:06.765Z,48.72
2018-06-25T04:50:06.780Z,48.82
2018-06-25T04:51:06.744Z,48.72
2018-06-25T04:52:06.732Z,48.82
2018-06-25T04:53:06.720Z,48.42
2018-06-25T04:54:06.709Z,48.92
2018-06-25T04:55:06.724Z,48.82
2018-06-25T04:56:06.700Z,48.82
2018-06-25T04:57:06.677Z,48.72
2018-06-25T04:58:06.667Z,48.52
2018-06-25T04:59:06.654Z,48.52
2018-06-25T05:00:06.667Z,48.52
2018-06-25T05:01:06.695Z,48.61
2018-06-25T05:02:06.621Z,48.52
2018-06-25T05:03:06.609Z,48.82
2018-06-25T05:04:06.599Z,48.72
2018-06-25T05:05:06.613Z,48.82
2018-06-25T05:06:06.577Z,48.52
2018-06-25T05:07:06.566Z,48.82
2018-06-25T05:08:06.559Z,48.72
2018-06-25T05:09:06.544Z,48.92
2018-06-25T05:10:06.556Z,48.52
2018-06-25T05:11:06.521Z,48.22
2018-06-25T05:12:06.511Z,48.61
2018-06-25T05:13:06.500Z,48.72
2018-06-25T05:14:06.488Z,48.72
2018-06-25T05:15:06.501Z,48.72
2018-06-25T05:16:06.467Z,48.82
2018-06-25T05:17:06.456Z,48.82
2018-06-25T05:18:06.444Z,48.42
2018-06-25T05:19:06.432Z,48.22
2018-06-25T05:20:06.446Z,48.52
2018-06-25T05:21:06.411Z,48.72
2018-06-25T05:22:06.403Z,48.42
2018-06-25T05:23:06.392Z,48.32
2018-06-25T05:24:06.379Z,48.22
2018-06-25T05:25:06.391Z,48.42
2018-06-25T05:26:06.357Z,48.32
2018-06-25T05:27:06.346Z,48.22
2018-06-25T05:28:06.332Z,48.52
2018-06-25T05:29:06.355Z,49.11
2018-06-25T05:30:06.334Z,48.22
2018-06-25T05:31:06.301Z,48.32
2018-06-25T05:32:06.292Z,49.02
2018-06-25T05:33:06.279Z,48.22
2018-06-25T05:34:06.266Z,48.92
2018-06-25T05:35:06.256Z,49.02
2018-06-25T05:36:06.270Z,49.32
2018-06-25T05:37:06.232Z,49.22
2018-06-25T05:38:06.220Z,49.11
2018-06-25T05:39:06.210Z,48.52
2018-06-25T05:40:06.201Z,49.11
2018-06-25T05:41:06.215Z,49.02
2018-06-25T05:42:06.183Z,49.02
2018-06-25T05:43:06.176Z,49.11
2018-06-25T05:44:06.156Z,48.22
2018-06-25T05:45:06.146Z,48.22
2018-06-25T05:46:06.158Z,49.11
2018-06-25T05:47:06.122Z,48.82
2018-06-25T05:48:06.110Z,49.11
2018-06-25T05:49:06.101Z,49.82
2018-06-25T05:50:06.091Z,49.82
2018-06-25T05:51:06.103Z,49.82
2018-06-25T05:52:06.067Z,49.41
2018-06-25T05:53:06.055Z,49.32
2018-06-25T05:54:06.047Z,49.72
2018-06-25T05:55:06.034Z,49.72
2018-06-25T05:56:06.047Z,49.82
2018-06-25T05:57:06.013Z,50.02
2018-06-25T05:58:06.001Z,49.62
2018-06-25T05:59:05.990Z,49.22
2018-06-25T06:00:05.979Z,49.82
2018-06-25T06:01:05.993Z,49.91
2018-06-25T06:02:05.958Z,49.52
2018-06-25T06:03:05.947Z,49.41
2018-06-25T06:04:05.933Z,49.32
2018-06-25T06:05:05.924Z,49.32
2018-06-25T06:06:05.936Z,49.62
2018-06-25T06:07:05.900Z,50.02
2018-06-25T06:08:05.893Z,49.72
2018-06-25T06:09:05.919Z,49.41
2018-06-25T06:10:05.868Z,49.62
2018-06-25T06:11:05.883Z,50.02
2018-06-25T06:12:05.847Z,49.91
2018-06-25T06:13:05.835Z,49.32
2018-06-25T06:14:05.823Z,50.12
2018-06-25T06:15:05.813Z,50.02
2018-06-25T06:16:05.826Z,50.42
2018-06-25T06:17:05.793Z,50.52
2018-06-25T06:18:05.783Z,50.09
2018-06-25T06:19:05.770Z,49.91
2018-06-25T06:20:05.758Z,50.82
2018-06-25T06:21:05.771Z,50.72
2018-06-25T06:22:05.736Z,51.52
2018-06-25T06:23:05.725Z,51.42
2018-06-25T06:24:05.713Z,51.42
2018-06-25T06:25:05.704Z,51.52
2018-06-25T06:26:05.720Z,51.82
2018-06-25T06:27:05.680Z,51.82
2018-06-25T06:28:05.681Z,52.12
2018-06-25T06:29:20.073Z,53.32
2018-06-25T06:30:20.061Z,56.80
2018-06-25T06:31:20.074Z,57.35
2018-06-25T06:32:20.036Z,59.45
2018-06-25T06:33:20.026Z,62.05
2018-06-25T06:34:20.015Z,64.92
2018-06-25T06:35:20.003Z,66.39
2018-06-25T06:36:20.019Z,67.13
2018-06-25T06:37:19.981Z,69.72
2018-06-25T06:38:19.970Z,69.85
2018-06-25T06:39:19.961Z,70.36
2018-06-25T06:40:19.951Z,71.60
2018-06-25T06:41:19.964Z,72.11
2018-06-25T06:42:19.935Z,72.04
2018-06-25T06:43:19.915Z,72.85
2018-06-25T06:44:19.908Z,72.34
2018-06-25T06:45:19.936Z,72.78
2018-06-25T06:46:19.906Z,73.28
2018-06-25T06:47:19.889Z,73.99
2018-06-25T06:48:19.861Z,73.69
2018-06-25T06:49:19.849Z,74.03
2018-06-25T06:50:19.928Z,75.75
2018-06-25T06:51:19.853Z,75.85
2018-06-25T06:52:19.818Z,75.99
2018-06-25T06:53:19.806Z,75.68
2018-06-25T06:54:19.796Z,75.82
2018-06-25T06:55:19.795Z,76.32
2018-06-25T06:56:19.800Z,76.73
2018-06-25T06:57:19.767Z,76.63
2018-06-25T06:58:19.750Z,76.53
2018-06-25T06:59:19.738Z,77.44
2018-06-25T07:00:19.728Z,77.34
2018-06-25T07:01:19.741Z,77.54
2018-06-25T07:02:19.706Z,77.20
2018-06-25T07:03:19.696Z,76.70
2018-06-25T07:04:19.737Z,76.79
2018-06-25T07:05:19.690Z,76.56
2018-06-25T07:06:19.684Z,76.26
2018-06-25T07:07:19.669Z,75.85
2018-06-25T07:08:19.649Z,74.84
2018-06-25T07:09:19.791Z,74.84
2018-06-25T07:10:19.673Z,74.33
2018-06-25T07:11:19.654Z,73.69
2018-06-25T07:12:19.593Z,74.10
2018-06-25T07:13:19.619Z,74.30
2018-06-25T07:14:19.608Z,74.74
2018-06-25T07:15:19.577Z,74.43
2018-06-25T07:16:19.592Z,74.63
2018-06-25T07:17:19.742Z,74.84
2018-06-25T07:18:19.536Z,73.93
2018-06-25T07:19:19.516Z,75.65
2018-06-25T07:20:19.514Z,74.30
2018-06-25T07:21:19.532Z,74.54
2018-06-25T07:22:19.484Z,74.13
2018-06-25T07:23:19.556Z,74.13
2018-06-25T07:24:19.534Z,74.84
2018-06-25T07:25:19.506Z,74.98
2018-06-25T07:26:19.463Z,74.74
2018-06-25T07:27:19.468Z,75.38
2018-06-25T07:28:19.425Z,75.79
2018-06-25T07:29:19.477Z,75.68
2018-06-25T07:30:19.477Z,74.37
2018-06-25T07:31:19.447Z,74.87
2018-06-25T07:32:19.475Z,74.87
2018-06-25T07:33:19.360Z,75.89
2018-06-25T07:34:19.353Z,75.72
2018-06-25T07:35:19.472Z,75.68
2018-06-25T07:36:19.333Z,75.07
2018-06-25T07:37:19.347Z,75.79
2018-06-25T07:38:19.333Z,74.67
2018-06-25T07:39:19.396Z,74.33
2018-06-25T07:40:19.485Z,74.77
2018-06-25T07:41:19.295Z,74.87
2018-06-25T07:42:19.314Z,74.37
2018-06-25T07:43:19.391Z,74.57
2018-06-25T07:44:19.272Z,74.77
2018-06-25T07:45:19.323Z,75.85
2018-06-25T07:46:19.220Z,75.79
2018-06-25T07:47:19.386Z,76.09
2018-06-25T07:48:19.195Z,75.95
2018-06-25T07:49:19.182Z,76.05
2018-06-25T07:50:19.172Z,74.30
2018-06-25T07:51:19.168Z,73.99
2018-06-25T07:52:19.173Z,73.75
2018-06-25T07:53:19.182Z,73.66
2018-06-25T07:54:19.174Z,73.62
2018-06-25T07:55:19.114Z,72.48
2018-06-25T07:56:19.107Z,71.13
2018-06-25T07:57:19.119Z,70.53
2018-06-25T07:58:19.084Z,69.18
2018-06-25T07:59:19.097Z,69.18
2018-06-25T08:00:19.061Z,69.18
2018-06-25T08:01:19.049Z,69.59
2018-06-25T08:02:19.066Z,69.28
2018-06-25T08:03:19.026Z,68.37
2018-06-25T08:04:19.018Z,68.17
2018-06-25T08:05:19.052Z,68.88
2018-06-25T08:06:18.992Z,68.77
2018-06-25T08:07:19.006Z,68.57
2018-06-25T08:08:18.973Z,68.17
2018-06-25T08:09:18.960Z,68.48
2018-06-25T08:10:19.018Z,67.90
2018-06-25T08:11:18.969Z,68.41
2018-06-25T08:12:18.951Z,68.51
2018-06-25T08:13:18.915Z,68.21
2018-06-25T08:14:18.905Z,68.57
2018-06-25T08:15:18.893Z,68.91
2018-06-25T08:16:18.919Z,68.21
2018-06-25T08:17:18.956Z,69.01
2018-06-25T08:18:18.879Z,69.21
2018-06-25T08:19:18.851Z,69.52
2018-06-25T08:20:18.899Z,68.95
2018-06-25T08:21:18.846Z,69.55
2018-06-25T08:22:18.837Z,69.55
2018-06-25T08:23:18.836Z,69.45
2018-06-25T08:24:18.794Z,69.65
2018-06-25T08:25:18.782Z,69.11
2018-06-25T08:26:18.774Z,68.91
2018-06-25T08:27:18.791Z,67.27
2018-06-25T08:28:18.747Z,67.67
2018-06-25T08:29:18.736Z,67.07
2018-06-25T08:30:18.727Z,66.63
2018-06-25T08:31:18.740Z,66.60
2018-06-25T08:32:18.742Z,65.69
2018-06-25T08:33:18.701Z,65.99
2018-06-25T08:34:18.822Z,66.09
2018-06-25T08:35:18.676Z,64.78
2018-06-25T08:36:18.661Z,64.48
2018-06-25T08:37:18.769Z,64.98
2018-06-25T08:38:18.635Z,66.39
2018-06-25T08:39:18.631Z,65.69
2018-06-25T08:40:18.682Z,65.49
2018-06-25T08:41:18.646Z,65.19
2018-06-25T08:42:18.624Z,64.35
2018-06-25T08:43:18.638Z,65.09
2018-06-25T08:44:18.599Z,64.48
2018-06-25T08:45:18.561Z,65.19
2018-06-25T08:46:18.575Z,65.42
2018-06-25T08:47:18.561Z,65.09
2018-06-25T08:48:18.526Z,66.73
2018-06-25T08:49:18.514Z,66.02
2018-06-25T08:50:18.504Z,66.73
2018-06-25T08:51:18.492Z,66.53
2018-06-25T08:52:18.519Z,66.90
2018-06-25T08:53:18.496Z,66.39
2018-06-25T08:54:18.469Z,64.86
2018-06-25T08:55:18.471Z,65.16
2018-06-25T08:56:18.439Z,66.06
2018-06-25T08:57:18.509Z,65.26
2018-06-25T08:58:18.428Z,65.36
2018-06-25T08:59:18.473Z,64.82
2018-06-25T09:00:18.393Z,64.72
2018-06-25T09:01:18.381Z,64.82
2018-06-25T09:02:18.401Z,64.32
2018-06-25T09:03:18.394Z,64.82
2018-06-25T09:04:18.361Z,64.25
2018-06-25T09:05:18.433Z,65.06
2018-06-25T09:06:18.353Z,65.49
2018-06-25T09:07:18.339Z,66.39
2018-06-25T09:08:18.310Z,65.82
2018-06-25T09:09:18.320Z,65.72
2018-06-25T09:10:18.283Z,66.25
2018-06-25T09:11:18.272Z,67.07
2018-06-25T09:12:18.303Z,68.48
2018-06-25T09:13:18.259Z,68.27
2018-06-25T09:14:18.237Z,68.17
2018-06-25T09:15:18.276Z,68.77
2018-06-25T09:16:18.217Z,67.67
2018-06-25T09:17:18.248Z,68.48
2018-06-25T09:18:18.208Z,67.57
2018-06-25T09:19:18.185Z,67.57
2018-06-25T09:20:18.175Z,67.36
2018-06-25T09:21:18.220Z,66.83
2018-06-25T09:22:18.176Z,66.22
2018-06-25T09:23:18.146Z,66.63
2018-06-25T09:24:18.133Z,66.42
2018-06-25T09:25:18.119Z,65.82
2018-06-25T09:26:18.148Z,65.01
2018-06-25T09:27:18.094Z,65.29
2018-06-25T09:28:18.109Z,64.98
2018-06-25T09:29:18.072Z,65.29
2018-06-25T09:30:18.059Z,65.39
2018-06-25T09:31:18.049Z,65.46
2018-06-25T09:32:18.066Z,64.72
2018-06-25T09:33:18.051Z,64.02
2018-06-25T09:34:18.014Z,63.42
2018-06-25T09:35:18.062Z,63.21
2018-06-25T09:36:18.003Z,63.28
2018-06-25T09:37:17.983Z,63.99
2018-06-25T09:38:17.999Z,63.28
2018-06-25T09:39:18.825Z,63.39
2018-06-25T09:40:17.954Z,63.18
2018-06-25T09:41:18.048Z,64.69
2018-06-25T09:42:17.929Z,64.72
2018-06-25T09:43:17.945Z,64.02
2018-06-25T09:44:17.906Z,65.46
2018-06-25T09:45:17.892Z,65.26
2018-06-25T09:46:17.885Z,65.59
2018-06-25T09:47:17.887Z,65.59
2018-06-25T09:48:17.885Z,66.09
2018-06-25T09:49:17.859Z,66.53
2018-06-25T09:50:17.838Z,67.10
2018-06-25T09:51:17.839Z,66.39
2018-06-25T09:52:17.815Z,66.09
2018-06-25T09:53:17.832Z,66.36
2018-06-25T09:54:17.795Z,65.76
2018-06-25T09:55:17.804Z,65.76
2018-06-25T09:56:17.773Z,65.56
2018-06-25T09:57:17.775Z,64.65
2018-06-25T09:58:17.773Z,64.86
2018-06-25T09:59:17.737Z,65.02
2018-06-25T10:00:17.725Z,64.92
2018-06-25T10:01:17.716Z,64.82
2018-06-25T10:02:17.704Z,64.39
2018-06-25T10:03:17.720Z,63.08
2018-06-25T10:04:17.683Z,63.48
2018-06-25T10:05:17.676Z,63.08
2018-06-25T10:06:17.661Z,63.39
2018-06-25T10:07:17.648Z,62.98
2018-06-25T10:08:17.661Z,62.88
2018-06-25T10:09:17.627Z,62.75
2018-06-25T10:10:17.618Z,63.25
2018-06-25T10:11:17.605Z,62.02
2018-06-25T10:12:17.594Z,62.12
2018-06-25T10:13:17.608Z,61.18
2018-06-25T10:14:17.571Z,61.25
2018-06-25T10:15:17.562Z,60.45
2018-06-25T10:16:17.549Z,59.45
2018-06-25T10:17:17.538Z,59.69
2018-06-25T10:18:17.552Z,59.52
2018-06-25T10:19:17.517Z,59.42
2018-06-25T10:20:17.506Z,60.45
2018-06-25T10:21:17.536Z,61.05
2018-06-25T10:22:17.549Z,60.68
2018-06-25T10:23:17.503Z,61.29
2018-06-25T10:24:17.460Z,61.58
2018-06-25T10:25:17.464Z,62.19
2018-06-25T10:26:17.438Z,62.08
2018-06-25T10:27:17.435Z,61.46
2018-06-25T10:28:17.451Z,61.29
2018-06-25T10:29:17.407Z,61.08
2018-06-25T10:30:17.394Z,60.35
2018-06-25T10:31:17.384Z,60.75
2018-06-25T10:32:17.371Z,60.68
2018-06-25T10:33:17.392Z,61.49
2018-06-25T10:34:17.349Z,62.19
2018-06-25T10:35:17.343Z,61.29
2018-06-25T10:36:17.355Z,61.49
2018-06-25T10:37:17.315Z,61.58
2018-06-25T10:38:17.330Z,61.35
2018-06-25T10:39:17.293Z,60.82
2018-06-25T10:40:17.325Z,59.32
2018-06-25T10:41:17.272Z,59.69
2018-06-25T10:42:17.350Z,58.96
2018-06-25T10:43:17.283Z,57.53
2018-06-25T10:44:17.245Z,56.83
2018-06-25T10:45:17.228Z,56.60
2018-06-25T10:46:17.218Z,55.80
2018-06-25T10:47:17.214Z,56.60
2018-06-25T10:48:17.227Z,55.65
2018-06-25T10:49:17.184Z,54.64
2018-06-25T10:50:17.188Z,54.64
2018-06-25T10:51:17.171Z,54.57
2018-06-25T10:52:17.151Z,54.97
2018-06-25T10:53:17.164Z,56.57
2018-06-25T10:54:17.128Z,56.70
2018-06-25T10:55:17.116Z,56.80
2018-06-25T10:56:17.123Z,57.83
2018-06-25T10:57:17.096Z,58.63
2018-06-25T10:58:17.109Z,58.56
2018-06-25T10:59:17.072Z,57.63
2018-06-25T11:00:17.172Z,58.03
2018-06-25T11:01:17.132Z,56.73
2018-06-25T11:02:17.038Z,57.43
2018-06-25T11:03:17.063Z,57.23
2018-06-25T11:04:17.033Z,55.20
2018-06-25T11:05:17.006Z,54.90
2018-06-25T11:06:16.995Z,55.90
2018-06-25T11:07:17.225Z,53.47
2018-06-25T11:08:16.976Z,51.72
2018-06-25T11:09:16.993Z,51.62
2018-06-25T11:10:16.956Z,48.75
2018-06-25T11:11:17.837Z,49.18
2018-06-25T11:12:16.931Z,47.17
2018-06-25T11:13:16.930Z,45.81
2018-06-25T11:14:16.935Z,43.76
2018-06-25T11:15:16.901Z,43.34
2018-06-25T11:16:16.891Z,44.29
2018-06-25T11:17:16.889Z,45.75
2018-06-25T11:18:16.871Z,46.67
2018-06-25T11:19:16.886Z,47.96
2018-06-25T11:20:16.860Z,47.29
2018-06-25T11:21:16.840Z,47.99
2018-06-25T11:22:16.829Z,46.89
2018-06-25T11:23:16.836Z,47.27
2018-06-25T11:24:16.828Z,47.37
2018-06-25T11:25:16.795Z,47.89
2018-06-25T11:26:16.786Z,47.51
2018-06-25T11:27:16.856Z,47.75
2018-06-25T11:28:16.764Z,49.50
2018-06-25T11:29:16.798Z,51.67
2018-06-25T11:30:16.741Z,52.62
2018-06-25T11:31:16.779Z,53.24
2018-06-25T11:32:16.781Z,54.97
2018-06-25T11:33:16.710Z,55.60
2018-06-25T11:34:16.797Z,55.70
2018-06-25T11:35:16.700Z,55.00
2018-06-25T11:36:16.686Z,55.50
2018-06-25T11:37:16.666Z,56.85
2018-06-25T11:38:16.658Z,56.56
2018-06-25T11:39:16.673Z,56.96
2018-06-25T11:40:16.651Z,56.96
2018-06-25T11:41:16.657Z,56.96
2018-06-25T11:42:16.678Z,57.39
2018-06-25T11:43:16.601Z,57.59
2018-06-25T11:44:16.613Z,57.18
2018-06-25T11:45:16.603Z,57.86
2018-06-25T11:46:16.568Z,57.48
2018-06-25T11:47:16.558Z,56.96
2018-06-25T11:48:16.583Z,56.13
2018-06-25T11:49:16.560Z,56.43
2018-06-25T11:50:16.525Z,55.22
2018-06-25T11:51:16.515Z,54.93
2018-06-25T11:52:16.509Z,55.73
2018-06-25T11:53:16.510Z,55.02
2018-06-25T11:54:16.506Z,56.13
2018-06-25T11:55:16.475Z,57.03
2018-06-25T11:56:16.466Z,56.83
2018-06-25T11:57:16.451Z,57.56
2018-06-25T11:58:16.465Z,58.18
2018-06-25T11:59:16.452Z,59.42
2018-06-25T12:00:16.504Z,59.52
2018-06-25T12:01:16.414Z,60.35
2018-06-25T12:02:16.394Z,60.55
2018-06-25T12:03:16.571Z,60.85
2018-06-25T12:04:16.397Z,61.69
2018-06-25T12:05:16.367Z,61.25
2018-06-25T12:06:16.351Z,61.46
2018-06-25T12:07:16.378Z,61.15
2018-06-25T12:08:16.329Z,60.52
2018-06-25T12:09:16.346Z,60.32
2018-06-25T12:10:16.313Z,60.55
2018-06-25T12:11:16.295Z,61.55
2018-06-25T12:12:16.296Z,61.15
2018-06-25T12:13:16.276Z,61.46
2018-06-25T12:14:16.420Z,61.25
2018-06-25T12:15:16.255Z,61.25
2018-06-25T12:16:16.242Z,61.86
2018-06-25T12:19:33.663Z,62.19
2018-06-25T12:20:33.628Z,61.99
2018-06-25T12:21:33.617Z,62.46
2018-06-25T12:22:33.603Z,62.39
2018-06-25T12:23:33.592Z,62.08
2018-06-25T12:24:33.604Z,61.99
2018-06-25T12:25:33.569Z,62.72
2018-06-25T12:26:33.559Z,63.25
2018-06-25T12:27:33.568Z,63.25
2018-06-25T12:28:33.538Z,63.99
2018-06-25T12:29:33.569Z,63.96
2018-06-25T12:30:33.516Z,63.76
2018-06-25T12:31:33.502Z,64.06
2018-06-25T12:32:33.496Z,62.92
2018-06-25T12:33:33.481Z,62.82
2018-06-25T12:34:33.530Z,62.12
2018-06-25T12:35:33.463Z,62.49
2018-06-25T12:36:33.449Z,62.39
2018-06-25T12:37:33.501Z,61.58
2018-06-25T12:38:33.427Z,61.79
2018-06-25T12:39:33.437Z,61.38
2018-06-25T12:40:33.424Z,61.25
2018-06-25T12:41:33.399Z,60.82
2018-06-25T12:42:33.383Z,60.32
2018-06-25T12:43:33.445Z,60.52
2018-06-25T12:44:33.380Z,59.72
2018-06-25T12:45:33.352Z,59.72
2018-06-25T12:46:33.337Z,60.52
2018-06-25T12:47:33.349Z,59.29
2018-06-25T12:48:33.312Z,60.29
2018-06-25T12:49:33.329Z,59.79
2018-06-25T12:50:33.301Z,59.06
2018-06-25T12:51:33.283Z,58.23
2018-06-25T12:52:33.267Z,58.03
2018-06-25T12:53:33.271Z,58.13
2018-06-25T12:54:33.273Z,57.63